createdAt,value
2023-10-25T00:00:02.908Z,97310.20
2023-10-25T00:02:36.196Z,97305.20
2023-10-25T00:05:11.222Z,97301.00
2023-10-25T00:07:44.301Z,97298.20
2023-10-25T00:10:17.770Z,97291.20
2023-10-25T00:12:50.892Z,97290.60
2023-10-25T00:15:24.156Z,97294.40
2023-10-25T00:17:57.781Z,97293.80
2023-10-25T00:20:30.908Z,97291.40
2023-10-25T00:23:05.504Z,97283.60
2023-10-25T00:25:40.536Z,97287.00
2023-10-25T00:28:13.890Z,97282.40
2023-10-25T00:30:48.092Z,97271.40
2023-10-25T00:33:21.375Z,97268.60
2023-10-25T00:35:55.112Z,97272.60
2023-10-25T00:38:28.234Z,97269.80
2023-10-25T00:41:01.465Z,97265.80
2023-10-25T00:43:34.569Z,97268.00
2023-10-25T00:46:14.095Z,97264.60
2023-10-25T00:48:49.824Z,97266.20
2023-10-25T00:51:25.378Z,97264.20
2023-10-25T00:54:00.759Z,97260.60
2023-10-25T00:56:35.799Z,97260.60
2023-10-25T00:59:12.780Z,97263.20
2023-10-25T01:01:46.717Z,97258.40
2023-10-25T01:04:20.848Z,97258.40
2023-10-25T01:06:55.265Z,97255.40
2023-10-25T01:09:30.596Z,97251.60
2023-10-25T01:12:03.975Z,97255.20
2023-10-25T01:14:37.169Z,97257.20
2023-10-25T01:17:10.410Z,97254.60
2023-10-25T01:19:43.727Z,97258.00
2023-10-25T01:22:17.008Z,97257.00
2023-10-25T01:24:50.273Z,97258.20
2023-10-25T01:27:23.883Z,97253.80
2023-10-25T01:29:57.025Z,97255.80
2023-10-25T01:32:30.108Z,97251.80
2023-10-25T01:35:03.246Z,97253.60
2023-10-25T01:37:36.577Z,97257.00
2023-10-25T01:40:12.399Z,97262.20
2023-10-25T01:42:45.718Z,97266.40
2023-10-25T01:45:19.312Z,97267.60
2023-10-25T01:47:52.667Z,97259.60
2023-10-25T01:50:26.060Z,97253.60
2023-10-25T01:52:59.243Z,97244.40
2023-10-25T01:55:32.326Z,97247.20
2023-10-25T01:58:05.545Z,97256.40
2023-10-25T02:00:41.689Z,97253.00
2023-10-25T02:03:14.983Z,97252.40
2023-10-25T02:05:48.390Z,97254.40
2023-10-25T02:08:21.502Z,97244.40
2023-10-25T02:10:54.634Z,97247.20
2023-10-25T02:13:27.862Z,97253.00
2023-10-25T02:16:01.019Z,97253.40
2023-10-25T02:18:34.143Z,97247.80
2023-10-25T02:21:07.244Z,97242.00
2023-10-25T02:23:41.443Z,97241.60
2023-10-25T02:26:14.715Z,97240.60
2023-10-25T02:28:47.883Z,97238.60
2023-10-25T02:31:21.156Z,97250.20
2023-10-25T02:33:54.425Z,97246.40
2023-10-25T02:36:27.789Z,97244.80
2023-10-25T02:39:01.692Z,97243.20
2023-10-25T02:41:35.372Z,97245.80
2023-10-25T02:44:09.085Z,97241.00
2023-10-25T02:46:42.320Z,97236.80
2023-10-25T02:49:15.781Z,97244.60
2023-10-25T02:51:49.024Z,97243.80
2023-10-25T02:54:23.126Z,97242.00
2023-10-25T02:56:57.245Z,97240.60
2023-10-25T02:59:30.475Z,97239.80
2023-10-25T03:02:10.209Z,97240.00
2023-10-25T03:04:46.234Z,97240.60
2023-10-25T03:07:19.424Z,97243.60
2023-10-25T03:09:52.647Z,97245.00
2023-10-25T03:12:25.871Z,97240.80
2023-10-25T03:14:59.038Z,97239.40
2023-10-25T03:17:33.340Z,97239.00
2023-10-25T03:20:09.128Z,97238.60
2023-10-25T03:22:42.261Z,97234.20
2023-10-25T03:25:15.547Z,97234.80
2023-10-25T03:27:49.007Z,97233.40
2023-10-25T03:30:22.590Z,97243.60
2023-10-25T03:32:55.955Z,97251.00
2023-10-25T03:35:30.580Z,97245.60
2023-10-25T03:38:03.921Z,97244.20
2023-10-25T03:40:37.023Z,97246.80
2023-10-25T03:43:10.260Z,97247.80
2023-10-25T03:45:44.093Z,97241.00
2023-10-25T03:48:17.319Z,97246.60
2023-10-25T03:50:50.551Z,97249.80
2023-10-25T03:53:24.049Z,97254.20
2023-10-25T03:56:00.862Z,97246.80
2023-10-25T03:58:34.533Z,97246.40
2023-10-25T04:01:11.783Z,97253.40
2023-10-25T04:03:45.711Z,97253.00
2023-10-25T04:06:18.890Z,97258.20
2023-10-25T04:08:52.027Z,97258.60
2023-10-25T04:11:25.291Z,97259.00
2023-10-25T04:13:58.377Z,97254.20
2023-10-25T04:16:31.540Z,97259.40
2023-10-25T04:19:04.830Z,97263.00
2023-10-25T04:21:38.008Z,97259.20
2023-10-25T04:24:12.436Z,97257.60
2023-10-25T04:26:45.468Z,97266.40
2023-10-25T04:29:18.737Z,97260.20
2023-10-25T04:31:52.039Z,97266.60
2023-10-25T04:34:25.405Z,97263.40
2023-10-25T04:36:59.733Z,97264.00
2023-10-25T04:39:32.861Z,97260.20
2023-10-25T04:42:06.746Z,97261.60
2023-10-25T04:44:39.920Z,97269.60
2023-10-25T04:47:14.851Z,97264.40
2023-10-25T04:49:48.009Z,97269.40
2023-10-25T04:52:21.113Z,97270.60
2023-10-25T04:54:54.544Z,97279.20
2023-10-25T04:57:27.656Z,97274.40
2023-10-25T05:00:01.060Z,97287.20
2023-10-25T05:02:35.096Z,97282.80
2023-10-25T05:05:09.875Z,97286.80
2023-10-25T05:07:44.752Z,97288.00
2023-10-25T05:10:19.396Z,97296.80
2023-10-25T05:12:54.121Z,97298.40
2023-10-25T05:15:29.720Z,97297.40
2023-10-25T05:18:04.486Z,97306.00
2023-10-25T05:20:42.564Z,97307.00
2023-10-25T05:23:17.533Z,97311.80
2023-10-25T05:25:52.170Z,97317.40
2023-10-25T05:28:27.209Z,97322.80
2023-10-25T05:31:06.778Z,97328.00
2023-10-25T05:33:40.732Z,97328.40
2023-10-25T05:36:18.179Z,97327.80
2023-10-25T05:38:52.664Z,97334.80
2023-10-25T05:41:31.175Z,97341.60
2023-10-25T05:44:12.235Z,97347.20
2023-10-25T05:46:45.598Z,97352.40
2023-10-25T05:49:20.317Z,97353.60
2023-10-25T05:51:54.977Z,97357.20
2023-10-25T05:54:29.992Z,97361.60
2023-10-25T05:57:04.973Z,97364.80
2023-10-25T05:59:39.804Z,97374.00
2023-10-25T06:02:18.799Z,97380.20
2023-10-25T06:04:55.197Z,97380.40
2023-10-25T06:07:29.959Z,97385.00
2023-10-25T06:10:05.084Z,97386.40
2023-10-25T06:12:42.028Z,97395.80
2023-10-25T06:15:16.079Z,97397.40
2023-10-25T06:17:49.344Z,97398.20
2023-10-25T06:20:22.887Z,97400.40
2023-10-25T06:22:57.759Z,97403.00
2023-10-25T06:25:32.945Z,97403.20
2023-10-25T06:28:06.601Z,97404.80
2023-10-25T06:30:39.867Z,97409.00
2023-10-25T06:33:13.168Z,97400.40
2023-10-25T06:35:46.628Z,97404.00
2023-10-25T06:38:21.113Z,97412.40
2023-10-25T06:40:55.654Z,97416.00
2023-10-25T06:43:32.639Z,97416.60
2023-10-25T06:46:07.323Z,97417.00
2023-10-25T06:48:42.321Z,97420.20
2023-10-25T06:51:17.557Z,97422.40
2023-10-25T06:53:52.197Z,97425.40
2023-10-25T06:56:26.701Z,97423.80
2023-10-25T06:59:01.310Z,97428.40
2023-10-25T07:01:41.718Z,97428.00
2023-10-25T07:04:17.184Z,97434.80
2023-10-25T07:06:51.980Z,97440.20
2023-10-25T07:09:25.822Z,97444.60
2023-10-25T07:11:58.947Z,97443.80
2023-10-25T07:14:32.333Z,97440.00
2023-10-25T07:17:05.868Z,97442.20
2023-10-25T07:19:41.301Z,97445.00
2023-10-25T07:22:15.245Z,97444.00
2023-10-25T07:24:48.551Z,97446.40
2023-10-25T07:27:21.742Z,97452.80
2023-10-25T07:29:55.090Z,97447.20
2023-10-25T07:32:28.460Z,97445.20
2023-10-25T07:35:01.627Z,97445.60
2023-10-25T07:37:35.295Z,97444.00
2023-10-25T07:40:11.417Z,97445.60
2023-10-25T07:42:44.681Z,97451.00
2023-10-25T07:45:18.544Z,97455.40
2023-10-25T07:47:51.718Z,97459.40
2023-10-25T07:50:24.923Z,97466.60
2023-10-25T07:52:58.032Z,97459.00
2023-10-25T08:00:43.312Z,97464.00
2023-10-25T08:03:18.712Z,97467.60
2023-10-25T08:05:52.256Z,97478.00
2023-10-25T08:08:25.429Z,97481.80
2023-10-25T08:11:06.446Z,97478.80
2023-10-25T08:13:41.461Z,97482.00
2023-10-25T08:16:14.637Z,97486.60
2023-10-25T08:18:47.890Z,97486.40
2023-10-25T08:21:21.075Z,97491.80
2023-10-25T08:23:55.946Z,97494.60
2023-10-25T08:26:29.393Z,97492.80
2023-10-25T08:29:03.435Z,97497.60
2023-10-25T08:31:37.256Z,97498.40
2023-10-25T08:34:12.635Z,97497.00
2023-10-25T08:36:46.207Z,97504.80
2023-10-25T08:39:22.706Z,97506.20
2023-10-25T08:41:57.052Z,97514.00
2023-10-25T08:44:33.359Z,97516.40
2023-10-25T08:47:07.096Z,97515.80
2023-10-25T08:49:41.648Z,97516.20
2023-10-25T08:52:20.373Z,97518.00
2023-10-25T08:54:54.002Z,97515.40
2023-10-25T08:57:28.172Z,97509.60
2023-10-25T09:00:01.420Z,97510.60
2023-10-25T09:02:41.830Z,97515.20
2023-10-25T09:05:17.158Z,97520.40
2023-10-25T09:07:50.396Z,97521.80
2023-10-25T09:10:25.158Z,97513.60
2023-10-25T09:12:58.553Z,97513.60
2023-10-25T09:15:34.902Z,97514.20
2023-10-25T09:18:08.612Z,97516.40
2023-10-25T09:20:41.896Z,97522.00
2023-10-25T09:23:17.231Z,97527.20
2023-10-25T09:25:51.017Z,97530.60
2023-10-25T09:28:29.619Z,97538.40
2023-10-25T09:31:04.159Z,97531.80
2023-10-25T09:33:37.434Z,97528.20
2023-10-25T09:36:12.048Z,97527.00
2023-10-25T09:38:45.323Z,97525.00
2023-10-25T09:41:19.355Z,97521.60
2023-10-25T09:43:54.728Z,97529.60
2023-10-25T09:46:31.209Z,97538.00
2023-10-25T09:49:09.306Z,97541.60
2023-10-25T09:52:00.566Z,97545.00
2023-10-25T09:54:37.899Z,97543.00
2023-10-25T09:57:13.682Z,97541.80
2023-10-25T09:59:48.306Z,97544.20
2023-10-25T10:02:33.847Z,97550.60
2023-10-25T10:05:16.069Z,97548.60
2023-10-25T10:08:02.504Z,97547.20
2023-10-25T10:10:41.750Z,97542.80
2023-10-25T10:13:22.593Z,97552.60
2023-10-25T10:16:06.038Z,97552.00
2023-10-25T10:18:43.871Z,97553.20
2023-10-25T10:21:17.235Z,97551.20
2023-10-25T10:23:51.756Z,97545.40
2023-10-25T10:26:53.297Z,97548.80
2023-10-25T10:29:47.558Z,97551.80
2023-10-25T10:32:21.481Z,97543.80
2023-10-25T10:34:57.854Z,97544.00
2023-10-25T10:37:33.009Z,97547.00
2023-10-25T10:40:19.871Z,97546.40
2023-10-25T10:42:53.162Z,97551.40
2023-10-25T10:45:31.318Z,97548.40
2023-10-25T10:48:15.641Z,97550.80
2023-10-25T10:50:50.892Z,97548.20
2023-10-25T10:53:24.294Z,97549.80
2023-10-25T10:55:57.887Z,97549.60
2023-10-25T10:58:31.236Z,97549.00
2023-10-25T11:01:04.739Z,97555.20
2023-10-25T11:03:40.148Z,97553.60
2023-10-25T11:06:14.122Z,97554.20
2023-10-25T11:08:48.569Z,97555.80
2023-10-25T11:11:23.785Z,97566.00
2023-10-25T11:13:57.639Z,97564.00
2023-10-25T11:16:31.936Z,97566.40
2023-10-25T11:19:11.994Z,97562.60
2023-10-25T11:21:46.359Z,97562.40
2023-10-25T11:24:20.304Z,97564.60
2023-10-25T11:26:54.387Z,97567.20
2023-10-25T11:29:29.227Z,97567.20
2023-10-25T11:32:07.362Z,97566.60
2023-10-25T11:34:44.151Z,97570.80
2023-10-25T11:37:20.755Z,97564.80
2023-10-25T11:40:08.422Z,97563.40
2023-10-25T11:42:43.801Z,97562.80
2023-10-25T11:45:20.360Z,97563.80
2023-10-25T11:47:55.784Z,97563.00
2023-10-25T11:50:31.047Z,97569.60
2023-10-25T11:53:04.465Z,97573.60
2023-10-25T11:55:37.987Z,97582.80
2023-10-25T11:58:16.308Z,97584.80
2023-10-25T12:00:49.616Z,97596.40
2023-10-25T12:03:22.855Z,97588.40
2023-10-25T12:05:56.546Z,97592.00
2023-10-25T12:08:30.139Z,97589.00
2023-10-25T12:11:03.470Z,97584.20
2023-10-25T12:13:36.729Z,97590.20
2023-10-25T12:16:11.543Z,97590.20
2023-10-25T12:18:44.757Z,97591.00
2023-10-25T12:21:18.031Z,97590.00
2023-10-25T12:23:51.133Z,97591.40
2023-10-25T12:26:24.438Z,97590.60
2023-10-25T12:28:57.693Z,97586.00
2023-10-25T12:31:30.930Z,97587.20
2023-10-25T12:34:04.737Z,97582.20
2023-10-25T12:36:39.453Z,97583.20
2023-10-25T12:39:17.705Z,97581.60
2023-10-25T12:41:52.878Z,97580.80
2023-10-25T12:44:27.277Z,97585.40
2023-10-25T12:47:02.754Z,97579.40
2023-10-25T12:49:36.616Z,97584.20
2023-10-25T12:52:11.854Z,97584.00
2023-10-25T12:54:45.912Z,97582.20
2023-10-25T12:57:20.404Z,97576.40
2023-10-25T12:59:54.921Z,97580.00
2023-10-25T13:02:29.043Z,97581.00
2023-10-25T13:05:04.011Z,97580.60
2023-10-25T13:07:37.625Z,97577.20
2023-10-25T13:10:13.060Z,97577.20
2023-10-25T13:12:46.446Z,97578.20
2023-10-25T13:15:19.819Z,97573.80
2023-10-25T13:17:53.122Z,97578.60
2023-10-25T13:20:26.807Z,97574.60
2023-10-25T13:23:00.946Z,97577.60
2023-10-25T13:25:34.928Z,97574.60
2023-10-25T13:28:08.606Z,97576.80
2023-10-25T13:30:42.044Z,97578.60
2023-10-25T13:33:15.421Z,97572.80
2023-10-25T13:35:49.462Z,97569.60
2023-10-25T13:38:23.155Z,97567.80
2023-10-25T13:40:56.361Z,97560.60
2023-10-25T13:43:29.632Z,97566.00
2023-10-25T13:46:02.822Z,97560.20
2023-10-25T13:48:36.261Z,97557.60
2023-10-25T13:51:09.969Z,97559.60
2023-10-25T13:53:43.134Z,97558.40
2023-10-25T13:56:20.263Z,97558.00
2023-10-25T13:58:53.848Z,97554.00
2023-10-25T14:01:27.180Z,97557.00
2023-10-25T14:04:00.474Z,97552.80
2023-10-25T14:06:33.906Z,97551.60
2023-10-25T14:09:07.637Z,97551.40
2023-10-25T14:11:41.280Z,97552.00
2023-10-25T14:14:14.721Z,97554.80
2023-10-25T14:16:48.625Z,97555.20
2023-10-25T14:19:24.267Z,97552.80
2023-10-25T14:21:57.389Z,97550.60
2023-10-25T14:24:37.049Z,97546.80
2023-10-25T14:27:11.667Z,97547.80
2023-10-25T14:29:45.480Z,97540.80
2023-10-25T14:32:18.986Z,97538.40
2023-10-25T14:34:53.074Z,97535.00
2023-10-25T14:37:26.998Z,97541.80
2023-10-25T14:40:00.256Z,97543.00
2023-10-25T14:42:33.467Z,97545.00
2023-10-25T14:45:08.480Z,97545.20
2023-10-25T14:47:41.862Z,97546.40
2023-10-25T14:50:15.326Z,97533.40
2023-10-25T14:52:48.423Z,97534.00
2023-10-25T14:55:21.687Z,97534.60
2023-10-25T14:57:54.847Z,97531.40
2023-10-25T15:00:28.196Z,97532.20
2023-10-25T15:03:02.027Z,97531.40
2023-10-25T15:05:42.423Z,97532.20
2023-10-25T15:08:15.699Z,97530.60
2023-10-25T15:10:49.155Z,97534.20
2023-10-25T15:13:22.288Z,97532.20
2023-10-25T15:16:02.122Z,97527.60
2023-10-25T15:18:35.304Z,97529.60
2023-10-25T15:21:14.611Z,97532.00
2023-10-25T15:23:48.070Z,97531.00
2023-10-25T15:26:21.809Z,97535.40
2023-10-25T15:28:55.083Z,97532.60
2023-10-25T15:31:28.411Z,97532.00
2023-10-25T15:34:03.070Z,97532.60
2023-10-25T15:36:36.512Z,97530.80
2023-10-25T15:39:10.719Z,97527.40
2023-10-25T15:41:44.500Z,97535.40
2023-10-25T15:44:17.720Z,97530.20
2023-10-25T15:46:51.494Z,97528.20
2023-10-25T15:49:24.919Z,97523.20
2023-10-25T15:51:59.021Z,97516.20
2023-10-25T15:54:34.174Z,97512.60
2023-10-25T15:57:07.744Z,97517.60
2023-10-25T15:59:40.936Z,97509.20
2023-10-25T16:02:14.086Z,97511.20
2023-10-25T16:04:47.849Z,97507.60
2023-10-25T16:07:21.237Z,97508.20
2023-10-25T16:09:54.352Z,97501.00
2023-10-25T16:12:30.445Z,97493.20
2023-10-25T16:15:03.715Z,97495.40
2023-10-25T16:17:39.312Z,97497.80
2023-10-25T16:20:15.155Z,97492.80
2023-10-25T16:22:49.130Z,97497.40
2023-10-25T16:25:22.425Z,97492.80
2023-10-25T16:27:55.512Z,97495.60
2023-10-25T16:30:29.023Z,97496.60
2023-10-25T16:33:02.701Z,97495.20
2023-10-25T16:35:38.469Z,97493.60
2023-10-25T16:38:12.356Z,97489.20
2023-10-25T16:40:45.656Z,97485.00
2023-10-25T16:43:18.946Z,97486.80
2023-10-25T16:45:55.233Z,97493.00
2023-10-25T16:48:28.424Z,97491.20
2023-10-25T16:51:11.667Z,97486.80
2023-10-25T16:53:45.916Z,97491.00
2023-10-25T16:56:21.638Z,97493.20
2023-10-25T16:58:55.682Z,97488.60
2023-10-25T17:01:28.945Z,97490.40
2023-10-25T17:04:03.413Z,97492.60
2023-10-25T17:06:36.941Z,97495.00
2023-10-25T17:09:12.460Z,97497.40
2023-10-25T17:11:46.108Z,97497.40
2023-10-25T17:14:20.934Z,97491.00
2023-10-25T17:16:54.121Z,97493.60
2023-10-25T17:19:27.333Z,97498.20
2023-10-25T17:22:00.494Z,97494.00
2023-10-25T17:24:34.299Z,97489.60
2023-10-25T17:27:08.048Z,97492.00
2023-10-25T17:29:41.336Z,97491.40
2023-10-25T17:32:15.024Z,97483.20
2023-10-25T17:34:48.496Z,97485.80
2023-10-25T17:37:21.804Z,97484.60
2023-10-25T17:39:56.368Z,97479.80
2023-10-25T17:42:29.557Z,97474.40
2023-10-25T17:45:04.654Z,97468.40
2023-10-25T17:47:52.493Z,97463.80
2023-10-25T17:50:26.392Z,97465.20
2023-10-25T17:52:59.827Z,97469.40
2023-10-25T17:55:33.026Z,97472.20
2023-10-25T17:58:10.484Z,97465.60
2023-10-25T18:00:47.319Z,97467.20
2023-10-25T18:03:21.019Z,97465.80
2023-10-25T18:05:54.751Z,97466.40
2023-10-25T18:08:27.982Z,97463.00
2023-10-25T18:11:01.144Z,97465.60
2023-10-25T18:13:38.170Z,97466.20
2023-10-25T18:16:16.549Z,97462.40
2023-10-25T18:18:49.872Z,97463.60
2023-10-25T18:21:23.087Z,97466.20
2023-10-25T18:23:58.354Z,97462.60
2023-10-25T18:26:32.249Z,97462.80
2023-10-25T18:29:06.652Z,97462.00
2023-10-25T18:31:59.258Z,97462.40
2023-10-25T18:34:34.327Z,97458.80
2023-10-25T18:37:08.052Z,97452.40
2023-10-25T18:39:42.106Z,97448.00
2023-10-25T18:42:15.433Z,97452.40
2023-10-25T18:44:48.913Z,97450.60
2023-10-25T18:47:22.072Z,97446.40
2023-10-25T18:49:57.806Z,97452.60
2023-10-25T18:52:32.265Z,97451.60
2023-10-25T18:55:06.124Z,97447.00
2023-10-25T18:57:39.419Z,97438.60
2023-10-25T19:00:15.635Z,97440.80
2023-10-25T19:02:49.087Z,97442.40
2023-10-25T19:06:25.882Z,97441.80
2023-10-25T19:08:27.018Z,97432.20
2023-10-25T19:11:01.092Z,97425.20
2023-10-25T19:13:35.553Z,97418.40
2023-10-25T19:16:10.190Z,97421.80
2023-10-25T19:18:43.705Z,97417.20
2023-10-25T19:21:17.133Z,97412.40
2023-10-25T19:23:55.560Z,97412.80
2023-10-25T19:26:33.769Z,97420.60
2023-10-25T19:29:14.762Z,97405.60
2023-10-25T19:31:48.150Z,97404.40
2023-10-25T19:34:25.108Z,97404.00
2023-10-25T19:36:59.636Z,97405.20
2023-10-25T19:39:33.179Z,97402.40
2023-10-25T19:42:06.780Z,97407.40
2023-10-25T19:44:40.014Z,97402.80
2023-10-25T19:47:13.308Z,97402.60
2023-10-25T19:49:46.661Z,97404.40
2023-10-25T19:52:19.890Z,97402.20
2023-10-25T19:54:53.168Z,97398.80
2023-10-25T19:57:26.252Z,97405.60
2023-10-25T20:00:00.377Z,97393.80
2023-10-25T20:02:33.599Z,97394.40
2023-10-25T20:05:07.686Z,97392.20
2023-10-25T20:07:40.983Z,97383.20
2023-10-25T20:10:16.044Z,97380.60
2023-10-25T20:12:50.683Z,97376.00
2023-10-25T20:15:25.634Z,97372.20
2023-10-25T20:17:58.903Z,97368.80
2023-10-25T20:20:32.283Z,97371.00
2023-10-25T20:23:05.360Z,97370.40
2023-10-25T20:25:38.469Z,97365.80
2023-10-25T20:28:11.543Z,97371.00
2023-10-25T20:30:44.907Z,97362.80
2023-10-25T20:33:18.643Z,97363.80
2023-10-25T20:35:51.789Z,97371.80
2023-10-25T20:38:25.120Z,97371.60
2023-10-25T20:40:58.351Z,97374.00
2023-10-25T20:43:31.632Z,97377.20
2023-10-25T20:46:05.349Z,97379.40
2023-10-25T20:48:38.654Z,97381.20
2023-10-25T20:51:12.390Z,97378.40
2023-10-25T20:53:45.839Z,97377.40
2023-10-25T20:56:19.186Z,97379.80
2023-10-25T20:58:52.622Z,97379.40
2023-10-25T21:01:26.291Z,97378.80
2023-10-25T21:03:59.729Z,97375.20
2023-10-25T21:06:33.109Z,97374.20
2023-10-25T21:09:07.507Z,97375.00
2023-10-25T21:11:40.884Z,97373.00
2023-10-25T21:14:14.290Z,97370.40
2023-10-25T21:16:47.674Z,97363.00
2023-10-25T21:19:20.905Z,97359.60
2023-10-25T21:21:56.552Z,97357.40
2023-10-25T21:24:29.995Z,97351.80
2023-10-25T21:27:04.256Z,97352.80
2023-10-25T21:29:37.484Z,97347.60
2023-10-25T21:32:11.422Z,97341.00
2023-10-25T21:34:44.778Z,97342.80
2023-10-25T21:37:18.263Z,97351.20
2023-10-25T21:39:51.559Z,97349.00
2023-10-25T21:42:24.900Z,97352.80
2023-10-25T21:44:58.674Z,97352.60
2023-10-25T21:47:32.106Z,97345.80
2023-10-25T21:50:05.807Z,97346.00
2023-10-25T21:52:39.080Z,97339.40
2023-10-25T21:55:13.536Z,97333.20
2023-10-25T21:59:46.175Z,97328.60
2023-10-25T22:00:41.871Z,97321.80
2023-10-25T22:03:15.789Z,97321.80
2023-10-25T22:05:51.038Z,97325.60
2023-10-25T22:08:24.454Z,97325.20
2023-10-25T22:10:58.835Z,97321.00
2023-10-25T22:13:33.322Z,97326.00
2023-10-25T22:16:07.365Z,97314.80
2023-10-25T22:18:40.971Z,97308.40
2023-10-25T22:21:14.523Z,97310.40
2023-10-25T22:23:47.710Z,97307.00
2023-10-25T22:26:21.690Z,97305.80
2023-10-25T22:29:08.541Z,97304.40
2023-10-25T22:31:48.121Z,97308.80
2023-10-25T22:34:21.371Z,97307.60
2023-10-25T22:36:54.803Z,97305.60
2023-10-25T22:39:28.153Z,97305.40
2023-10-25T22:42:01.303Z,97307.60
2023-10-25T22:44:34.560Z,97308.80
2023-10-25T22:47:07.945Z,97312.20
2023-10-25T22:49:41.122Z,97303.80
2023-10-25T22:52:15.309Z,97305.20
2023-10-25T22:54:48.653Z,97305.20
2023-10-25T22:57:21.833Z,97302.20
2023-10-25T22:59:55.054Z,97300.80
2023-10-25T23:02:28.196Z,97292.60
2023-10-25T23:05:01.401Z,97293.00
2023-10-25T23:07:34.514Z,97286.40
2023-10-25T23:10:08.785Z,97284.40
2023-10-25T23:12:42.242Z,97289.60
2023-10-25T23:15:15.709Z,97279.20
2023-10-25T23:17:48.960Z,97274.00
2023-10-25T23:20:22.360Z,97271.40
2023-10-25T23:22:55.502Z,97270.20
2023-10-25T23:25:28.649Z,97261.40
2023-10-25T23:28:01.738Z,97255.40
2023-10-25T23:30:36.223Z,97253.60
2023-10-25T23:33:09.905Z,97253.20
2023-10-25T23:35:43.115Z,97249.60
2023-10-25T23:38:16.153Z,97246.20
2023-10-25T23:40:49.316Z,97241.80
2023-10-25T23:43:22.399Z,97243.40
2023-10-25T23:45:55.806Z,97235.60
2023-10-25T23:48:29.146Z,97246.20
2023-10-25T23:51:02.359Z,97239.20
2023-10-25T23:53:35.532Z,97237.00
2023-10-25T23:56:36.685Z,97238.00
2023-10-25T23:59:02.727Z,97241.60
